createdAt,value
2018-02-14T00:00:35.213Z,17.40
2018-02-14T00:01:38.456Z,17.37
2018-02-14T00:02:41.676Z,18.90
2018-02-14T00:03:44.919Z,16.00
2018-02-14T00:04:48.892Z,17.05
2018-02-14T00:05:52.154Z,16.17
2018-02-14T00:06:55.368Z,17.98
2018-02-14T00:07:58.566Z,14.48
2018-02-14T00:09:01.795Z,17.00
2018-02-14T00:10:05.036Z,17.40
2018-02-14T00:11:08.265Z,15.98
2018-02-14T00:12:11.501Z,15.73
2018-02-14T00:13:14.772Z,15.75
2018-02-14T00:14:18.033Z,17.25
2018-02-14T00:15:21.265Z,17.55
2018-02-14T00:16:24.573Z,17.15
2018-02-14T00:17:27.822Z,16.40
2018-02-14T00:18:31.023Z,17.37
2018-02-14T00:19:34.336Z,17.17
2018-02-14T00:20:37.539Z,16.65
2018-02-14T00:21:40.765Z,16.58
2018-02-14T00:22:44.036Z,15.32
2018-02-14T00:23:48.021Z,17.15
2018-02-14T00:24:52.008Z,16.87
2018-02-14T00:25:55.232Z,14.85
2018-02-14T00:26:58.455Z,15.57
2018-02-14T00:28:01.695Z,18.60
2018-02-14T00:29:04.938Z,16.35
2018-02-14T00:30:08.160Z,16.05
2018-02-14T00:31:11.411Z,16.52
2018-02-14T00:32:14.638Z,17.95
2018-02-14T00:33:17.862Z,17.05
2018-02-14T00:34:21.185Z,16.55
2018-02-14T00:35:24.420Z,15.30
2018-02-14T00:36:27.676Z,15.23
2018-02-14T00:37:30.895Z,15.88
2018-02-14T00:38:34.131Z,16.75
2018-02-14T00:39:37.393Z,16.10
2018-02-14T00:40:40.686Z,16.12
2018-02-14T00:41:43.923Z,16.50
2018-02-14T00:42:47.144Z,17.05
2018-02-14T00:43:50.370Z,16.65
2018-02-14T00:44:53.596Z,16.17
2018-02-14T00:45:57.594Z,16.70
2018-02-14T00:47:01.589Z,16.20
2018-02-14T00:48:04.817Z,17.15
2018-02-14T00:49:08.034Z,17.35
2018-02-14T00:50:11.257Z,17.55
2018-02-14T00:51:14.486Z,16.10
2018-02-14T00:52:17.738Z,15.57
2018-02-14T00:53:20.969Z,18.30
2018-02-14T00:54:24.284Z,15.85
2018-02-14T00:55:27.524Z,15.60
2018-02-14T00:56:31.521Z,17.17
2018-02-14T00:57:34.748Z,16.37
2018-02-14T00:58:38.736Z,16.20
2018-02-14T00:59:42.739Z,16.65
2018-02-14T01:00:46.730Z,15.43
2018-02-14T01:01:49.955Z,16.15
2018-02-14T01:02:53.190Z,17.02
2018-02-14T01:03:56.502Z,15.85
2018-02-14T01:05:00.483Z,14.93
2018-02-14T01:06:04.487Z,17.23
2018-02-14T01:07:08.471Z,15.73
2018-02-14T01:08:11.709Z,16.92
2018-02-14T01:09:14.953Z,16.92
2018-02-14T01:10:18.944Z,16.62
2018-02-14T01:11:22.256Z,17.27
2018-02-14T01:12:25.492Z,16.02
2018-02-14T01:13:28.739Z,15.90
2018-02-14T01:14:31.949Z,15.93
2018-02-14T01:15:35.181Z,16.20
2018-02-14T01:16:39.173Z,17.20
2018-02-14T01:17:43.159Z,17.87
2018-02-14T01:18:48.170Z,16.25
2018-02-14T01:19:57.203Z,18.48
2018-02-14T01:21:00.451Z,16.90
2018-02-14T01:22:03.688Z,16.75
2018-02-14T01:23:07.684Z,18.17
2018-02-14T01:24:11.666Z,16.95
2018-02-14T01:25:14.904Z,16.85
2018-02-14T01:26:18.144Z,16.48
2018-02-14T01:27:22.160Z,16.35
2018-02-14T01:28:26.503Z,17.77
2018-02-14T01:29:31.375Z,15.88
2018-02-14T01:30:34.590Z,17.08
2018-02-14T01:31:37.823Z,16.17
2018-02-14T01:32:41.045Z,16.87
2018-02-14T01:33:44.276Z,17.05
2018-02-14T01:34:47.490Z,17.45
2018-02-14T01:35:51.477Z,16.75
2018-02-14T01:36:54.705Z,16.15
2018-02-14T01:37:57.953Z,19.20
2018-02-14T01:39:01.952Z,17.67
2018-02-14T01:40:05.193Z,16.30
2018-02-14T01:41:08.401Z,17.45
2018-02-14T01:42:11.641Z,16.50
2018-02-14T01:43:14.862Z,17.80
2018-02-14T01:44:18.106Z,15.95
2018-02-14T01:45:21.340Z,18.37
2018-02-14T01:46:24.568Z,19.00
2018-02-14T01:47:27.804Z,17.80
2018-02-14T01:48:31.810Z,17.30
2018-02-14T01:49:35.793Z,16.87
2018-02-14T01:50:39.011Z,17.75
2018-02-14T01:51:42.247Z,17.60
2018-02-14T01:52:45.461Z,17.60
2018-02-14T01:53:48.701Z,17.10
2018-02-14T01:54:51.923Z,17.08
2018-02-14T01:55:55.927Z,18.02
2018-02-14T01:56:59.903Z,17.95
2018-02-14T01:58:03.903Z,17.33
2018-02-14T01:59:07.138Z,17.90
2018-02-14T02:00:10.370Z,17.73
2018-02-14T02:01:13.597Z,17.70
2018-02-14T02:02:16.850Z,17.52
2018-02-14T02:03:20.862Z,18.52
2018-02-14T02:04:24.096Z,19.08
2018-02-14T02:05:27.309Z,19.70
2018-02-14T02:06:31.296Z,17.60
2018-02-14T02:07:34.506Z,17.45
2018-02-14T02:08:38.501Z,17.80
2018-02-14T02:09:42.497Z,18.52
2018-02-14T02:10:46.499Z,17.55
2018-02-14T02:11:50.501Z,18.75
2018-02-14T02:12:54.487Z,16.87
2018-02-14T02:13:57.753Z,17.67
2018-02-14T02:15:00.970Z,19.58
2018-02-14T02:16:04.964Z,18.33
2018-02-14T02:17:08.966Z,18.05
2018-02-14T02:18:13.041Z,17.25
2018-02-14T02:19:16.273Z,17.83
2018-02-14T02:20:19.516Z,18.45
2018-02-14T02:21:22.837Z,18.62
2018-02-14T02:22:26.070Z,16.92
2018-02-14T02:23:29.311Z,20.25
2018-02-14T02:24:32.548Z,18.12
2018-02-14T02:25:35.775Z,18.08
2018-02-14T02:26:38.993Z,17.50
2018-02-14T02:27:42.212Z,16.48
2018-02-14T02:28:46.212Z,17.73
2018-02-14T02:29:50.202Z,17.12
2018-02-14T02:30:54.484Z,17.35
2018-02-14T02:31:57.711Z,18.40
2018-02-14T02:33:01.749Z,17.50
2018-02-14T02:34:04.969Z,17.05
2018-02-14T02:35:08.204Z,18.10
2018-02-14T02:36:11.410Z,17.48
2018-02-14T02:37:14.644Z,17.30
2018-02-14T02:38:17.856Z,19.58
2018-02-14T02:39:47.656Z,17.40
2018-02-14T02:40:50.900Z,16.90
2018-02-14T02:41:54.134Z,18.60
2018-02-14T02:42:57.390Z,18.60
2018-02-14T02:44:00.627Z,16.98
2018-02-14T02:45:03.842Z,19.05
2018-02-14T02:46:07.819Z,18.05
2018-02-14T02:47:11.053Z,19.10
2018-02-14T02:48:14.311Z,19.33
2018-02-14T02:49:18.293Z,18.15
2018-02-14T02:50:21.585Z,20.00
2018-02-14T02:51:24.804Z,18.12
2018-02-14T02:52:28.042Z,18.15
2018-02-14T02:53:31.294Z,19.37
2018-02-14T02:54:34.518Z,18.98
2018-02-14T02:55:38.512Z,19.10
2018-02-14T02:56:41.731Z,18.45
2018-02-14T02:57:45.000Z,18.77
2018-02-14T02:58:49.053Z,19.12
2018-02-14T02:59:52.264Z,18.42
2018-02-14T03:00:56.258Z,18.80
2018-02-14T03:01:59.484Z,19.87
2018-02-14T03:03:02.735Z,17.95
2018-02-14T03:04:06.049Z,19.85
2018-02-14T03:05:09.272Z,17.45
2018-02-14T03:06:12.485Z,18.45
2018-02-14T03:07:16.475Z,18.98
2018-02-14T03:08:19.698Z,18.02
2018-02-14T03:09:22.969Z,20.75
2018-02-14T03:10:26.201Z,19.20
2018-02-14T03:11:29.420Z,17.87
2018-02-14T03:12:33.408Z,19.80
2018-02-14T03:13:37.393Z,18.83
2018-02-14T03:14:40.615Z,19.20
2018-02-14T03:15:43.840Z,18.90
2018-02-14T03:16:47.065Z,19.48
2018-02-14T03:17:51.065Z,19.55
2018-02-14T03:18:54.388Z,19.20
2018-02-14T03:19:57.622Z,19.23
2018-02-14T03:21:00.848Z,17.25
2018-02-14T03:22:04.069Z,19.67
2018-02-14T03:23:07.281Z,18.40
2018-02-14T03:24:11.304Z,18.87
2018-02-14T03:25:15.283Z,18.87
2018-02-14T03:26:19.285Z,17.62
2018-02-14T03:27:23.321Z,18.52
2018-02-14T03:28:26.549Z,19.45
2018-02-14T03:29:29.789Z,18.33
2018-02-14T03:30:33.053Z,19.45
2018-02-14T03:31:37.047Z,19.20
2018-02-14T03:32:41.063Z,19.30
2018-02-14T03:33:44.286Z,17.33
2018-02-14T03:34:47.518Z,18.23
2018-02-14T03:35:51.513Z,17.73
2018-02-14T03:36:55.518Z,19.00
2018-02-14T03:37:58.749Z,17.98
2018-02-14T03:39:02.004Z,20.40
2018-02-14T03:40:05.241Z,20.45
2018-02-14T03:41:08.457Z,20.65
2018-02-14T03:42:11.737Z,19.20
2018-02-14T03:43:14.981Z,18.60
2018-02-14T03:44:18.200Z,18.85
2018-02-14T03:45:21.441Z,18.80
2018-02-14T03:46:24.672Z,19.12
2018-02-14T03:47:27.968Z,18.17
2018-02-14T03:48:31.226Z,18.98
2018-02-14T03:49:34.447Z,18.58
2018-02-14T03:50:37.677Z,20.15
2018-02-14T03:51:41.680Z,18.60
2018-02-14T03:52:44.928Z,19.05
2018-02-14T03:53:48.131Z,20.52
2018-02-14T03:54:51.361Z,17.25
2018-02-14T03:55:54.660Z,19.10
2018-02-14T03:56:57.898Z,18.80
2018-02-14T03:58:01.906Z,19.90
2018-02-14T03:59:05.881Z,18.42
2018-02-14T04:00:09.866Z,18.83
2018-02-14T04:01:13.098Z,18.95
2018-02-14T04:02:16.319Z,17.95
2018-02-14T04:03:19.607Z,18.85
2018-02-14T04:04:22.796Z,18.95
2018-02-14T04:05:26.052Z,17.55
2018-02-14T04:06:29.285Z,18.25
2018-02-14T04:07:33.305Z,18.48
2018-02-14T04:08:36.530Z,19.58
2018-02-14T04:09:39.757Z,17.35
2018-02-14T04:10:43.752Z,18.77
2018-02-14T04:11:47.354Z,19.08
2018-02-14T04:12:51.462Z,18.42
2018-02-14T04:13:54.766Z,17.90
2018-02-14T04:14:57.992Z,18.10
2018-02-14T04:16:01.252Z,18.17
2018-02-14T04:17:04.460Z,19.42
2018-02-14T04:18:07.679Z,19.87
2018-02-14T04:19:10.925Z,20.20
2018-02-14T04:20:14.256Z,19.62
2018-02-14T04:21:17.480Z,17.62
2018-02-14T04:22:21.497Z,18.12
2018-02-14T04:23:24.712Z,18.90
2018-02-14T04:24:27.956Z,19.98
2018-02-14T04:25:31.191Z,19.23
2018-02-14T04:26:34.433Z,19.30
2018-02-14T04:27:37.656Z,18.70
2018-02-14T04:28:40.904Z,18.17
2018-02-14T04:29:44.901Z,19.80
2018-02-14T04:30:48.126Z,19.45
2018-02-14T04:31:51.356Z,19.00
2018-02-14T04:32:54.596Z,19.30
2018-02-14T04:33:57.817Z,19.52
2018-02-14T04:35:01.061Z,18.42
2018-02-14T04:36:04.288Z,19.05
2018-02-14T04:37:07.539Z,20.70
2018-02-14T04:38:10.775Z,18.50
2018-02-14T04:39:14.808Z,18.83
2018-02-14T04:40:18.046Z,19.15
2018-02-14T04:41:21.285Z,18.10
2018-02-14T04:42:24.581Z,18.60
2018-02-14T04:43:27.784Z,18.50
2018-02-14T04:44:31.040Z,21.15
2018-02-14T04:45:34.281Z,20.27
2018-02-14T04:46:38.276Z,18.37
2018-02-14T04:47:42.282Z,18.83
2018-02-14T04:48:46.267Z,19.08
2018-02-14T04:49:50.291Z,20.23
2018-02-14T04:50:54.277Z,17.42
2018-02-14T04:51:58.275Z,19.30
2018-02-14T04:53:01.514Z,18.15
2018-02-14T04:54:04.720Z,19.35
2018-02-14T04:55:07.964Z,20.65
2018-02-14T04:56:11.194Z,20.08
2018-02-14T04:57:14.414Z,19.20
2018-02-14T04:58:17.742Z,18.20
2018-02-14T04:59:20.935Z,19.73
2018-02-14T05:00:24.176Z,18.80
2018-02-14T05:01:27.406Z,19.62
2018-02-14T05:02:30.625Z,19.75
2018-02-14T05:03:33.846Z,19.60
2018-02-14T05:04:37.092Z,20.48
2018-02-14T05:05:40.321Z,20.08
2018-02-14T05:06:43.557Z,20.10
2018-02-14T05:07:46.782Z,19.50
2018-02-14T05:08:50.008Z,18.20
2018-02-14T05:09:54.021Z,18.12
2018-02-14T05:10:58.030Z,19.25
2018-02-14T05:12:01.264Z,19.10
2018-02-14T05:13:04.497Z,19.55
2018-02-14T05:14:07.705Z,20.58
2018-02-14T05:15:10.934Z,20.98
2018-02-14T05:16:14.946Z,18.80
2018-02-14T05:17:18.171Z,21.40
2018-02-14T05:18:21.418Z,19.05
2018-02-14T05:19:25.408Z,19.40
2018-02-14T05:20:29.404Z,20.25
2018-02-14T05:21:32.627Z,20.62
2018-02-14T05:22:36.104Z,19.87
2018-02-14T05:23:39.326Z,18.77
2018-02-14T05:24:42.624Z,19.50
2018-02-14T05:25:45.814Z,19.23
2018-02-14T05:26:49.045Z,17.80
2018-02-14T05:27:52.270Z,19.35
2018-02-14T05:28:55.552Z,19.17
2018-02-14T05:29:58.752Z,17.67
2018-02-14T05:31:01.972Z,18.55
2018-02-14T05:32:05.217Z,19.62
2018-02-14T05:33:08.471Z,18.58
2018-02-14T05:34:11.722Z,18.58
2018-02-14T05:35:14.936Z,19.35
2018-02-14T05:36:18.165Z,19.15
2018-02-14T05:37:22.168Z,19.20
2018-02-14T05:38:25.376Z,20.88
2018-02-14T05:39:28.642Z,20.00
2018-02-14T05:40:32.019Z,19.92
2018-02-14T05:41:36.011Z,20.60
2018-02-14T05:42:40.039Z,18.90
2018-02-14T05:43:43.276Z,18.27
2018-02-14T05:44:46.612Z,17.52
2018-02-14T05:45:49.942Z,19.95
2018-02-14T05:46:53.131Z,18.27
2018-02-14T05:47:56.364Z,18.40
2018-02-14T05:50:09.154Z,19.77
2018-02-14T05:51:13.171Z,18.80
2018-02-14T05:52:16.439Z,20.15
2018-02-14T05:53:20.438Z,20.25
2018-02-14T05:54:24.440Z,18.37
2018-02-14T05:55:28.476Z,20.25
2018-02-14T05:56:31.735Z,18.62
2018-02-14T05:57:35.738Z,17.80
2018-02-14T05:58:38.967Z,19.20
2018-02-14T05:59:42.185Z,18.70
2018-02-14T06:00:46.197Z,19.60
2018-02-14T06:01:50.186Z,19.70
2018-02-14T06:02:54.174Z,19.75
2018-02-14T06:03:57.401Z,18.17
2018-02-14T06:05:00.669Z,19.73
2018-02-14T06:06:03.900Z,18.75
2018-02-14T06:07:07.148Z,19.85
2018-02-14T06:08:10.379Z,18.80
2018-02-14T06:09:13.611Z,21.05
2018-02-14T06:10:16.842Z,19.20
2018-02-14T06:11:20.101Z,20.00
2018-02-14T06:12:23.343Z,20.02
2018-02-14T06:13:27.328Z,19.10
2018-02-14T06:14:31.357Z,18.17
2018-02-14T06:15:34.602Z,18.50
2018-02-14T06:16:37.862Z,20.25
2018-02-14T06:17:41.072Z,18.40
2018-02-14T06:18:44.364Z,21.20
2018-02-14T06:19:47.601Z,20.62
2018-02-14T06:20:50.823Z,19.23
2018-02-14T06:21:54.854Z,20.48
2018-02-14T06:22:58.863Z,19.52
2018-02-14T06:24:02.123Z,19.67
2018-02-14T06:25:06.145Z,19.10
2018-02-14T06:26:09.426Z,19.20
2018-02-14T06:27:12.661Z,18.50
2018-02-14T06:28:21.276Z,22.08
2018-02-14T06:29:24.526Z,19.50
2018-02-14T06:30:27.829Z,20.08
2018-02-14T06:31:31.117Z,19.40
2018-02-14T06:32:34.452Z,19.80
2018-02-14T06:33:37.699Z,20.42
2018-02-14T06:34:40.953Z,18.90
2018-02-14T06:35:44.332Z,19.00
2018-02-14T06:36:47.572Z,19.60
2018-02-14T06:37:51.567Z,20.33
2018-02-14T06:38:55.574Z,19.00
2018-02-14T06:39:58.867Z,20.75
2018-02-14T06:41:02.886Z,21.27
2018-02-14T06:42:06.163Z,18.58
2018-02-14T06:43:09.389Z,19.10
2018-02-14T06:44:12.610Z,18.73
2018-02-14T06:45:16.629Z,21.02
2018-02-14T06:46:19.900Z,20.58
2018-02-14T06:47:23.886Z,21.35
2018-02-14T06:48:27.958Z,19.95
2018-02-14T06:49:31.167Z,18.92
2018-02-14T06:50:35.168Z,19.02
2018-02-14T06:51:39.166Z,19.02
2018-02-14T06:52:42.386Z,18.30
2018-02-14T06:53:45.619Z,19.75
2018-02-14T06:54:48.841Z,18.80
2018-02-14T06:55:52.122Z,18.33
2018-02-14T06:56:55.441Z,17.30
2018-02-14T06:57:58.681Z,16.60
2018-02-14T06:59:01.899Z,16.23
2018-02-14T07:00:05.121Z,16.73
2018-02-14T07:01:08.522Z,16.33
2018-02-14T07:02:12.513Z,15.55
2018-02-14T07:03:15.747Z,15.43
2018-02-14T07:04:18.990Z,15.88
2018-02-14T07:05:22.201Z,16.08
2018-02-14T07:06:25.451Z,15.52
2018-02-14T07:07:28.680Z,16.67
2018-02-14T07:08:31.967Z,14.48
2018-02-14T07:09:35.963Z,14.80
2018-02-14T07:10:39.189Z,14.00
2018-02-14T07:11:42.408Z,12.90
2018-02-14T07:12:45.633Z,12.93
2018-02-14T07:13:49.641Z,13.45
2018-02-14T07:14:53.629Z,13.25
2018-02-14T07:15:56.856Z,14.68
2018-02-14T07:17:00.084Z,13.73
2018-02-14T07:18:03.318Z,13.48
2018-02-14T07:19:06.544Z,12.93
2018-02-14T07:20:09.774Z,13.05
2018-02-14T07:21:13.040Z,15.25
2018-02-14T07:22:17.009Z,13.75
2018-02-14T07:23:26.661Z,14.05
2018-02-14T07:24:29.911Z,15.10
2018-02-14T07:25:33.152Z,14.60
2018-02-14T07:26:36.377Z,15.65
2018-02-14T07:27:40.373Z,18.05
2018-02-14T07:28:43.600Z,14.68
2018-02-14T07:29:46.827Z,15.93
2018-02-14T07:30:50.059Z,17.58
2018-02-14T07:31:53.285Z,17.33
2018-02-14T07:32:56.516Z,17.00
2018-02-14T07:33:59.805Z,18.15
2018-02-14T07:35:03.091Z,16.85
2018-02-14T07:36:06.365Z,16.50
2018-02-14T07:37:09.634Z,16.85
2018-02-14T07:38:13.629Z,17.83
2018-02-14T07:39:17.631Z,17.33
2018-02-14T07:40:20.861Z,16.50
2018-02-14T07:41:24.072Z,17.58
2018-02-14T07:42:27.314Z,16.73
2018-02-14T07:43:30.540Z,17.00
2018-02-14T07:44:33.862Z,17.17
2018-02-14T07:45:37.860Z,18.08
2018-02-14T07:46:41.864Z,18.87
2018-02-14T07:47:45.125Z,15.48
2018-02-14T07:48:48.360Z,18.05
2018-02-14T07:49:51.586Z,18.02
2018-02-14T07:50:54.809Z,19.48
2018-02-14T07:51:58.060Z,17.92
2018-02-14T07:53:01.298Z,18.10
2018-02-14T07:54:04.541Z,19.33
2018-02-14T07:55:08.532Z,18.70
2018-02-14T07:56:12.517Z,18.90
2018-02-14T07:57:15.724Z,18.17
2018-02-14T07:58:18.966Z,17.30
2018-02-14T07:59:22.197Z,17.65
2018-02-14T08:00:25.424Z,20.25
2018-02-14T08:01:28.646Z,20.17
2018-02-14T08:02:32.640Z,19.42
2018-02-14T08:03:36.621Z,18.48
2018-02-14T08:04:41.349Z,20.00
2018-02-14T08:05:44.572Z,18.60
2018-02-14T08:06:47.853Z,17.85
2018-02-14T08:07:51.077Z,18.75
2018-02-14T08:08:54.306Z,18.00
2018-02-14T08:09:58.332Z,17.30
2018-02-14T08:11:01.571Z,15.52
2018-02-14T08:12:04.789Z,17.70
2018-02-14T08:13:08.018Z,18.05
2018-02-14T08:14:11.272Z,17.35
2018-02-14T08:15:14.501Z,17.83
2018-02-14T08:16:17.748Z,17.90
2018-02-14T08:17:20.972Z,16.70
2018-02-14T08:18:24.193Z,18.20
2018-02-14T08:19:27.422Z,16.85
2018-02-14T08:20:30.706Z,17.25
2018-02-14T08:21:33.947Z,17.27
2018-02-14T08:22:37.199Z,16.33
2018-02-14T08:23:41.177Z,16.55
2018-02-14T08:24:44.398Z,17.70
2018-02-14T08:25:47.625Z,15.35
2018-02-14T08:26:50.844Z,16.30
2018-02-14T08:27:54.935Z,16.08
2018-02-14T08:28:58.158Z,14.98
2018-02-14T08:30:01.388Z,14.95
2018-02-14T08:31:04.637Z,15.68
2018-02-14T08:32:07.873Z,14.80
2018-02-14T08:33:11.881Z,14.32
2018-02-14T08:34:15.872Z,12.20
2018-02-14T08:35:19.127Z,13.00
2018-02-14T08:36:22.356Z,12.65
2018-02-14T08:37:25.578Z,12.00
2018-02-14T08:38:28.801Z,11.52
2018-02-14T08:39:32.797Z,12.70
2018-02-14T08:40:36.813Z,12.98
2018-02-14T08:41:40.808Z,12.48
2018-02-14T08:42:44.795Z,12.98
2018-02-14T08:43:48.025Z,12.00
2018-02-14T08:44:51.277Z,13.20
2018-02-14T08:45:54.559Z,14.98
2018-02-14T08:46:57.759Z,13.10
2018-02-14T08:48:01.113Z,13.43
2018-02-14T08:49:04.324Z,12.48
2018-02-14T08:50:07.550Z,12.30
2018-02-14T08:51:10.825Z,13.62
2018-02-14T08:52:14.044Z,12.75
2018-02-14T08:53:17.353Z,13.10
2018-02-14T08:54:21.357Z,13.15
2018-02-14T08:55:24.581Z,13.23
2018-02-14T08:56:27.817Z,12.65
2018-02-14T08:57:31.812Z,13.30
2018-02-14T08:58:35.800Z,12.98
2018-02-14T08:59:39.789Z,11.93
2018-02-14T09:00:43.014Z,11.95
2018-02-14T09:01:46.226Z,11.77
2018-02-14T09:02:49.451Z,12.68
2018-02-14T09:03:52.679Z,13.20
2018-02-14T09:04:55.912Z,11.77
2018-02-14T09:05:59.126Z,11.65
2018-02-14T09:07:02.405Z,11.00
2018-02-14T09:08:05.702Z,10.43
2018-02-14T09:09:08.922Z,10.15
2018-02-14T09:10:12.149Z,9.05
2018-02-14T09:11:16.209Z,9.35
2018-02-14T09:12:19.400Z,10.70
2018-02-14T09:13:22.616Z,7.32
2018-02-14T09:14:26.615Z,8.80
2018-02-14T09:15:30.604Z,9.43
2018-02-14T09:16:34.604Z,7.75
2018-02-14T09:17:37.794Z,8.25
2018-02-14T09:18:41.809Z,9.20
2018-02-14T09:19:45.041Z,7.72
2018-02-14T09:20:48.269Z,8.57
2018-02-14T09:21:52.271Z,7.12
2018-02-14T09:22:56.248Z,7.30
2018-02-14T09:23:59.562Z,8.50
2018-02-14T09:25:02.810Z,8.65
2018-02-14T09:26:06.018Z,7.20
2018-02-14T09:27:09.252Z,9.07
2018-02-14T09:28:12.466Z,9.32
2018-02-14T09:29:15.686Z,8.35
2018-02-14T09:30:18.909Z,9.23
2018-02-14T09:31:22.163Z,8.48
2018-02-14T09:32:25.416Z,8.02
2018-02-14T09:33:29.403Z,7.75
2018-02-14T09:34:32.633Z,8.18
2018-02-14T09:35:35.868Z,9.60
2018-02-14T09:36:39.844Z,8.00
2018-02-14T09:37:43.065Z,8.90
2018-02-14T09:38:46.281Z,8.77
2018-02-14T09:39:49.502Z,8.38
2018-02-14T09:40:54.345Z,9.75
2018-02-14T09:41:58.349Z,10.30
2018-02-14T09:43:01.577Z,9.27
2018-02-14T09:44:04.817Z,9.90
2018-02-14T09:45:08.032Z,8.85
2018-02-14T09:46:11.245Z,8.32
2018-02-14T09:47:14.478Z,9.35
2018-02-14T09:48:17.697Z,8.95
2018-02-14T09:49:20.911Z,9.65
2018-02-14T09:50:24.887Z,9.68
2018-02-14T09:51:29.624Z,9.48
2018-02-14T09:52:33.612Z,8.13
2018-02-14T09:53:36.830Z,8.88
2018-02-14T09:54:40.807Z,7.72
2018-02-14T09:55:44.016Z,9.15
2018-02-14T09:56:47.995Z,8.20
2018-02-14T09:57:51.972Z,7.22
2018-02-14T09:58:55.180Z,8.13
2018-02-14T09:59:59.170Z,7.90
2018-02-14T10:01:02.377Z,8.57
2018-02-14T10:02:06.348Z,8.40
2018-02-14T10:03:09.573Z,8.52
2018-02-14T10:04:13.529Z,8.38
2018-02-14T10:05:16.745Z,8.80
2018-02-14T10:06:19.954Z,9.30
2018-02-14T10:07:23.190Z,8.88
2018-02-14T10:08:26.402Z,7.75
2018-02-14T10:09:29.632Z,7.25
2018-02-14T10:10:32.845Z,8.07
2018-02-14T10:11:36.838Z,8.10
2018-02-14T10:12:40.049Z,7.55
2018-02-14T10:13:43.318Z,7.50
2018-02-14T10:14:47.300Z,8.63
2018-02-14T10:15:52.047Z,8.30
2018-02-14T10:16:55.276Z,7.50
2018-02-14T10:17:58.498Z,7.65
2018-02-14T10:19:02.488Z,7.12
2018-02-14T10:20:05.696Z,7.05
2018-02-14T10:21:08.905Z,8.65
2018-02-14T10:22:12.122Z,7.05
2018-02-14T10:23:15.331Z,7.28
2018-02-14T10:24:19.315Z,7.05
2018-02-14T10:25:22.537Z,6.95
2018-02-14T10:26:25.740Z,5.70
2018-02-14T10:27:28.961Z,6.32
2018-02-14T10:28:32.189Z,5.90
2018-02-14T10:29:35.396Z,6.45
2018-02-14T10:30:38.618Z,7.53
2018-02-14T10:31:42.609Z,6.18
2018-02-14T10:32:45.816Z,7.25
2018-02-14T10:33:49.046Z,6.68
2018-02-14T10:34:52.293Z,7.60
2018-02-14T10:35:55.509Z,7.37
2018-02-14T10:36:58.738Z,7.28
2018-02-14T10:38:02.719Z,6.85
2018-02-14T10:39:05.925Z,6.32
2018-02-14T10:40:09.149Z,6.03
2018-02-14T10:41:12.389Z,5.50
2018-02-14T10:42:16.378Z,6.00
2018-02-14T10:43:19.581Z,5.75
2018-02-14T10:44:22.804Z,5.45
2018-02-14T10:45:26.044Z,7.45
2018-02-14T10:46:29.259Z,5.35
2018-02-14T10:47:32.525Z,5.50
2018-02-14T10:48:35.729Z,6.07
2018-02-14T10:49:39.294Z,5.82
2018-02-14T10:50:42.521Z,5.90
2018-02-14T10:51:45.730Z,6.72
2018-02-14T10:52:49.732Z,5.75
2018-02-14T10:53:53.720Z,6.75
2018-02-14T10:54:56.918Z,6.47
2018-02-14T10:56:00.902Z,6.70
2018-02-14T10:57:04.144Z,6.05
2018-02-14T10:58:07.446Z,6.95
2018-02-14T10:59:10.629Z,6.15
2018-02-14T11:00:19.477Z,6.35
2018-02-14T11:01:29.190Z,6.03
2018-02-14T11:02:38.090Z,5.53
2018-02-14T11:03:44.165Z,5.87
2018-02-14T11:04:53.260Z,4.87
2018-02-14T11:06:02.204Z,6.03
2018-02-14T11:07:22.983Z,5.93
2018-02-14T11:08:26.293Z,4.45
2018-02-14T11:09:30.274Z,5.43
2018-02-14T11:10:33.483Z,6.35
2018-02-14T11:11:36.700Z,7.12
2018-02-14T11:12:39.910Z,5.25
2018-02-14T11:13:43.123Z,6.37
2018-02-14T11:14:47.131Z,6.35
2018-02-14T11:15:51.096Z,6.47
2018-02-14T11:16:54.418Z,7.05
2018-02-14T11:17:58.388Z,6.55
2018-02-14T11:19:01.622Z,7.45
2018-02-14T11:20:04.853Z,7.07
2018-02-14T11:21:08.114Z,6.57
2018-02-14T11:22:11.321Z,6.75
2018-02-14T11:23:14.535Z,7.30
2018-02-14T11:24:17.748Z,7.43
2018-02-14T11:25:20.971Z,6.50
2018-02-14T11:26:24.187Z,8.38
2018-02-14T11:27:27.402Z,6.68
2018-02-14T11:28:30.611Z,7.12
2018-02-14T11:29:33.927Z,7.53
2018-02-14T11:30:37.916Z,7.10
2018-02-14T11:31:41.904Z,7.35
2018-02-14T11:32:45.112Z,7.00
2018-02-14T11:33:48.325Z,7.18
2018-02-14T11:34:51.546Z,8.23
2018-02-14T11:35:54.810Z,7.55
2018-02-14T11:36:58.008Z,6.85
2018-02-14T11:38:01.230Z,7.40
2018-02-14T11:39:05.190Z,7.40
2018-02-14T11:40:08.411Z,7.40
2018-02-14T11:41:11.629Z,6.87
2018-02-14T11:42:14.837Z,7.10
2018-02-14T11:43:18.052Z,7.22
2018-02-14T11:44:21.264Z,6.93
2018-02-14T11:45:24.497Z,6.75
2018-02-14T11:46:27.721Z,6.87
2018-02-14T11:47:30.931Z,6.75
2018-02-14T11:48:34.165Z,6.93
2018-02-14T11:49:37.385Z,7.00
2018-02-14T11:50:40.590Z,7.65
2018-02-14T11:51:43.809Z,7.30
2018-02-14T11:52:47.777Z,6.90
2018-02-14T11:53:50.988Z,7.32
2018-02-14T11:54:54.958Z,7.07
2018-02-14T11:55:58.218Z,7.45
2018-02-14T11:57:01.437Z,7.03
2018-02-14T11:58:04.680Z,7.40
2018-02-14T11:59:07.890Z,7.37
2018-02-14T12:00:11.118Z,7.32
2018-02-14T12:01:14.325Z,7.45
2018-02-14T12:02:17.579Z,8.30
2018-02-14T12:03:21.554Z,7.95
2018-02-14T12:04:25.551Z,7.47
2018-02-14T12:05:28.745Z,6.70
2018-02-14T12:06:32.729Z,6.53
2018-02-14T12:07:35.948Z,7.03
2018-02-14T12:08:39.157Z,7.80
2018-02-14T12:09:42.395Z,7.68
2018-02-14T12:10:46.388Z,7.40
2018-02-14T12:11:49.583Z,8.02
2018-02-14T12:12:53.569Z,7.90
2018-02-14T12:13:56.810Z,8.35
2018-02-14T12:15:00.065Z,8.23
2018-02-14T12:16:03.279Z,8.20
2018-02-14T12:17:06.489Z,7.90
2018-02-14T12:18:10.464Z,7.70
2018-02-14T12:19:13.672Z,7.95
2018-02-14T12:20:17.654Z,8.07
2018-02-14T12:21:20.873Z,6.80
2018-02-14T12:22:24.069Z,7.85
2018-02-14T12:23:27.294Z,7.37
2018-02-14T12:24:30.513Z,9.52
2018-02-14T12:25:33.725Z,7.00
2018-02-14T12:26:36.960Z,7.50
2018-02-14T12:27:40.933Z,7.65
2018-02-14T12:28:44.147Z,7.68
2018-02-14T12:29:48.210Z,8.27
2018-02-14T12:30:51.380Z,8.00
2018-02-14T12:31:54.617Z,8.07
2018-02-14T12:32:58.589Z,8.35
2018-02-14T12:34:01.800Z,7.03
2018-02-14T12:35:05.776Z,7.90
2018-02-14T12:36:08.987Z,6.80
2018-02-14T12:37:12.205Z,8.50
2018-02-14T12:38:15.408Z,7.60
2018-02-14T12:39:18.612Z,7.95
2018-02-14T12:40:21.872Z,6.78
2018-02-14T12:41:25.078Z,6.82
2018-02-14T12:42:29.100Z,8.52
2018-02-14T12:43:32.356Z,7.80
2018-02-14T12:44:35.570Z,7.57
2018-02-14T12:45:38.784Z,7.20
2018-02-14T12:46:41.985Z,8.07
2018-02-14T12:47:45.199Z,8.38
2018-02-14T12:48:49.169Z,9.43
2018-02-14T12:49:52.405Z,9.25
2018-02-14T12:50:55.612Z,10.73
2018-02-14T12:51:58.850Z,10.52
2018-02-14T12:53:03.105Z,11.07
2018-02-14T12:54:06.344Z,11.55
2018-02-14T12:55:10.332Z,10.05
2018-02-14T12:56:13.537Z,12.18
2018-02-14T12:57:16.770Z,11.20
2018-02-14T12:58:19.994Z,10.95
2018-02-14T12:59:23.209Z,11.35
2018-02-14T13:00:26.423Z,12.37
2018-02-14T13:01:29.765Z,12.55
2018-02-14T13:02:32.990Z,11.93
2018-02-14T13:03:36.219Z,12.20
2018-02-14T13:04:39.441Z,12.13
2018-02-14T13:05:42.661Z,12.80
2018-02-14T13:06:46.652Z,11.02
2018-02-14T13:07:50.641Z,12.05
2018-02-14T13:08:53.952Z,12.20
2018-02-14T13:09:57.188Z,12.10
2018-02-14T13:11:00.417Z,12.02
2018-02-14T13:12:04.444Z,12.82
2018-02-14T13:13:07.664Z,12.52
2018-02-14T13:14:10.892Z,13.15
2018-02-14T13:15:14.120Z,12.48
2018-02-14T13:16:17.333Z,12.55
2018-02-14T13:17:21.421Z,14.43
2018-02-14T13:18:24.643Z,12.73
2018-02-14T13:19:27.857Z,12.90
2018-02-14T13:20:31.077Z,12.43
2018-02-14T13:21:34.298Z,13.43
2018-02-14T13:22:37.520Z,13.73
2018-02-14T13:23:40.836Z,13.20
2018-02-14T13:24:44.829Z,13.27
2018-02-14T13:25:48.807Z,13.60
2018-02-14T13:26:52.042Z,15.88
2018-02-14T13:27:55.273Z,13.50
2018-02-14T13:28:58.605Z,12.40
2018-02-14T13:30:01.867Z,13.13
2018-02-14T13:31:05.896Z,13.62
2018-02-14T13:32:09.155Z,13.10
2018-02-14T13:33:13.151Z,14.07
2018-02-14T13:34:17.138Z,13.52
2018-02-14T13:35:21.144Z,12.07
2018-02-14T13:36:25.122Z,13.05
2018-02-14T13:37:28.345Z,14.18
2018-02-14T13:38:31.823Z,13.18
2018-02-14T13:39:35.799Z,13.80
2018-02-14T13:40:39.797Z,13.45
2018-02-14T13:41:43.124Z,12.75
2018-02-14T13:42:46.352Z,13.88
2018-02-14T13:43:49.574Z,13.20
2018-02-14T13:44:53.562Z,12.02
2018-02-14T13:45:56.777Z,11.40
2018-02-14T13:47:00.006Z,12.55